Time;durP1;ratioP1;P1;durP2;ratioP2;P2;SDS_P1;SDS_P2;PMS_P1;PMS_P2;Temp;Humidity;BMP_temperature;BMP_pressure;BME280_temperature;BME280_humidity;BME280_pressure;Samples;Min_cycle;Max_cycle;Signal;HPM_P1;HPM_P2
2022/03/29 00:01:10;;;;;;;58.17;33.83;;;;;;;7.65;90.56;101870.38;5045797;28;20036;-60
2022/03/29 00:03:35;;;;;;;48.67;29.50;;;;;;;7.77;90.49;101854.56;5028856;28;20024;-58
2022/03/29 00:06:01;;;;;;;46.08;28.45;;;;;;;7.89;89.69;101863.25;5027754;28;20052;-56
2022/03/29 00:08:26;;;;;;;48.47;30.08;;;;;;;7.88;89.43;101856.25;5046096;28;20592;-58
2022/03/29 00:10:51;;;;;;;46.00;28.30;;;;;;;7.80;89.47;101854.53;5028046;28;20065;-56
2022/03/29 00:13:17;;;;;;;44.22;28.75;;;;;;;7.77;89.39;101851.09;5046407;28;20487;-61
2022/03/29 00:15:43;;;;;;;51.10;29.98;;;;;;;7.80;89.44;101853.69;5045677;28;20494;-58
2022/03/29 00:18:08;;;;;;;48.58;29.50;;;;;;;7.73;89.16;101844.13;5045571;28;20410;-59
2022/03/29 00:20:33;;;;;;;51.83;29.73;;;;;;;7.63;89.01;101840.66;5046386;28;20112;-56
2022/03/29 00:22:59;;;;;;;47.88;28.15;;;;;;;7.59;89.05;101829.34;5045173;28;20061;-58
2022/03/29 00:25:24;;;;;;;52.72;28.92;;;;;;;7.61;89.15;101831.94;5045917;28;20021;-57
2022/03/29 00:27:50;;;;;;;49.25;27.75;;;;;;;7.64;89.08;101821.41;5046148;28;20475;-59
2022/03/29 00:30:16;;;;;;;53.47;29.95;;;;;;;7.62;89.39;101821.44;5044022;28;20039;-58
2022/03/29 00:32:43;;;;;;;49.15;28.45;;;;;;;7.65;89.24;101817.94;5045521;28;20043;-58
2022/03/29 00:35:11;;;;;;;50.25;30.30;;;;;;;7.64;88.76;101817.03;5045551;28;20025;-61
2022/03/29 00:37:38;;;;;;;55.05;29.10;;;;;;;7.58;88.86;101812.72;5046280;28;20090;-58
2022/03/29 00:40:04;;;;;;;51.60;30.20;;;;;;;7.40;89.86;101813.69;5045739;28;20025;-59
2022/03/29 00:42:30;;;;;;;49.72;29.52;;;;;;;7.46;89.56;101807.53;5045197;28;20086;-56
2022/03/29 00:44:56;;;;;;;47.78;28.13;;;;;;;7.56;89.49;101803.13;5044557;28;20013;-57
2022/03/29 00:47:21;;;;;;;57.13;31.35;;;;;;;7.59;89.25;101803.94;5044138;28;20047;-58
2022/03/29 00:49:46;;;;;;;51.00;30.33;;;;;;;7.52;89.61;101797.00;5045876;28;20493;-59
2022/03/29 00:52:12;;;;;;;48.50;28.10;;;;;;;7.57;89.55;101795.25;5045149;28;20021;-57
2022/03/29 00:54:42;;;;;;;55.40;31.55;;;;;;;7.50;89.72;101793.53;5027902;28;20533;-62
2022/03/29 00:57:08;;;;;;;51.33;31.23;;;;;;;7.42;89.75;101796.19;5044884;28;20032;-60
2022/03/29 00:59:34;;;;;;;53.40;29.80;;;;;;;7.42;89.74;101790.94;5045628;28;20017;-60
2022/03/29 01:02:00;;;;;;;55.03;32.25;;;;;;;7.32;89.85;101805.84;5045218;28;20103;-56
2022/03/29 01:04:29;;;;;;;48.17;28.02;;;;;;;7.38;89.94;101798.84;5044193;28;20048;-57
2022/03/29 01:06:59;;;;;;;53.58;30.40;;;;;;;7.42;89.79;101800.56;5045587;28;20044;-57
2022/03/29 01:09:30;;;;;;;45.88;26.45;;;;;;;7.56;89.24;101796.09;5026104;28;20146;-57
2022/03/29 01:11:56;;;;;;;50.83;30.92;;;;;;;7.46;88.99;101792.66;5045464;28;20045;-56
2022/03/29 01:14:24;;;;;;;53.63;32.47;;;;;;;7.47;89.17;101796.19;5056035;23;20049;-59
2022/03/29 01:19:36;;;;;;;56.63;31.75;;;;;;;7.31;89.69;101788.38;5050747;28;20039;-60
2022/03/29 01:22:03;;;;;;;52.85;29.58;;;;;;;7.35;89.19;101783.13;5046911;28;20034;-58
2022/03/29 01:24:28;;;;;;;54.97;32.47;;;;;;;7.36;89.48;101792.72;5047417;28;20029;-59
2022/03/29 01:27:01;;;;;;;51.20;31.08;;;;;;;7.42;89.05;101787.44;5064023;28;20029;-59
2022/03/29 01:29:30;;;;;;;59.42;30.90;;;;;;;7.40;88.68;101778.69;5064582;28;20063;-59
2022/03/29 01:31:57;;;;;;;49.92;28.90;;;;;;;7.40;88.65;101776.09;5064746;28;20105;-59
2022/03/29 01:34:23;;;;;;;54.78;31.77;;;;;;;7.35;88.73;101772.63;5064147;28;20016;-58
2022/03/29 01:36:48;;;;;;;49.30;28.45;;;;;;;7.40;88.83;101776.97;5047273;28;20069;-58
2022/03/29 01:39:14;;;;;;;53.13;29.63;;;;;;;7.40;88.59;101768.22;5064797;28;20025;-60
2022/03/29 01:41:39;;;;;;;55.63;32.33;;;;;;;7.26;89.09;101761.31;5064405;28;20036;-59
2022/03/29 01:44:06;;;;;;;57.90;34.75;;;;;;;7.28;89.41;101766.53;5065288;28;20031;-59
2022/03/29 01:46:31;;;;;;;55.30;31.23;;;;;;;7.36;89.31;101761.25;5063486;28;20060;-59
2022/03/29 01:48:57;;;;;;;54.17;31.70;;;;;;;7.40;89.17;101757.72;5064349;28;20124;-59
2022/03/29 01:51:23;;;;;;;53.60;32.25;;;;;;;7.33;89.22;101760.41;5065085;28;20025;-61
2022/03/29 01:53:53;;;;;;;56.50;30.02;;;;;;;7.41;89.40;101754.25;5064276;28;20550;-59
2022/03/29 01:56:18;;;;;;;61.05;33.25;;;;;;;7.36;89.28;101742.91;5064558;28;20067;-59
2022/03/29 01:58:43;;;;;;;60.97;33.15;;;;;;;7.27;89.83;101752.56;5064579;28;20478;-58
2022/03/29 02:01:09;;;;;;;56.97;31.98;;;;;;;7.36;89.76;101742.91;5063936;28;20546;-59
2022/03/29 02:03:34;;;;;;;50.88;29.92;;;;;;;7.45;89.50;101740.22;5065385;28;20024;-60
2022/03/29 02:05:59;;;;;;;43.70;26.42;;;;;;;7.52;89.14;101738.41;5063743;28;20036;-59
2022/03/29 02:08:25;;;;;;;51.35;27.55;;;;;;;7.50;88.92;101738.47;5064107;28;20021;-59
2022/03/29 02:10:50;;;;;;;58.53;31.80;;;;;;;7.42;89.17;101735.00;5064790;28;20100;-60
2022/03/29 02:13:17;;;;;;;50.92;28.95;;;;;;;7.40;89.45;101736.75;5064768;28;20052;-59
2022/03/29 02:15:42;;;;;;;52.80;31.20;;;;;;;7.33;89.66;101728.06;5063890;28;20128;-60
2022/03/29 02:18:08;;;;;;;57.20;32.47;;;;;;;7.29;89.40;101726.34;5063723;28;20051;-56
2022/03/29 02:20:33;;;;;;;58.78;33.92;;;;;;;7.26;89.76;101723.75;5063833;28;20467;-57
2022/03/29 02:23:03;;;;;;;62.83;33.72;;;;;;;7.25;90.11;101715.00;5063982;28;20054;-58
2022/03/29 02:25:29;;;;;;;54.47;30.52;;;;;;;7.33;89.68;101717.56;5064014;28;20431;-58
2022/03/29 02:27:55;;;;;;;54.10;31.42;;;;;;;7.27;89.99;101718.50;5049494;28;20078;-58
2022/03/29 02:30:20;;;;;;;60.38;33.35;;;;;;;7.31;89.98;101714.09;5067448;28;20046;-61
2022/03/29 02:32:45;;;;;;;57.70;33.45;;;;;;;7.35;89.79;101704.47;5068196;28;20029;-61
2022/03/29 02:35:11;;;;;;;57.08;31.42;;;;;;;7.39;89.89;101699.19;5068177;28;20078;-57
2022/03/29 02:37:37;;;;;;;59.70;32.55;;;;;;;7.34;89.70;101698.34;5049653;28;20029;-59
2022/03/29 02:40:03;;;;;;;55.60;33.03;;;;;;;7.31;89.74;101698.34;5067050;28;20035;-58
2022/03/29 02:42:28;;;;;;;50.55;30.30;;;;;;;7.32;89.97;101689.63;5067667;28;20156;-57
2022/03/29 02:44:54;;;;;;;55.67;30.75;;;;;;;7.32;90.00;101695.72;5066635;28;20024;-58
2022/03/29 02:47:20;;;;;;;59.63;32.67;;;;;;;7.22;89.88;101699.28;5068214;28;20170;-59
2022/03/29 02:49:45;;;;;;;54.60;28.35;;;;;;;7.29;90.03;101687.88;5067039;28;20025;-58
2022/03/29 02:52:11;;;;;;;62.22;34.97;;;;;;;7.26;89.90;101687.91;5068127;28;20103;-57
2022/03/29 02:54:36;;;;;;;67.80;35.78;;;;;;;7.18;90.55;101684.47;5067857;28;20463;-60
2022/03/29 02:57:02;;;;;;;64.38;33.45;;;;;;;7.19;91.12;101670.47;5049676;28;20020;-57
2022/03/29 02:59:27;;;;;;;71.10;36.40;;;;;;;7.17;91.13;101680.97;5065976;28;20386;-58
2022/03/29 03:01:53;;;;;;;65.40;32.65;;;;;;;7.23;90.87;101669.59;5066981;28;20077;-59
2022/03/29 03:04:18;;;;;;;69.95;35.30;;;;;;;7.19;91.07;101670.47;5066587;28;20447;-58
2022/03/29 03:06:43;;;;;;;70.65;35.00;;;;;;;7.25;90.91;101662.56;5066767;28;20060;-57
2022/03/29 03:09:09;;;;;;;61.10;29.30;;;;;;;7.32;90.96;101655.53;5067888;28;20107;-59
2022/03/29 03:11:37;;;;;;;79.65;38.28;;;;;;;7.28;91.17;101662.53;5067367;28;20012;-59
2022/03/29 03:14:03;;;;;;;80.35;39.38;;;;;;;7.27;91.17;101657.31;5067703;28;20048;-57
2022/03/29 03:16:28;;;;;;;71.60;36.33;;;;;;;7.31;91.16;101652.03;5065313;28;20521;-59
2022/03/29 03:18:54;;;;;;;78.97;38.35;;;;;;;7.34;91.58;101653.75;5049554;28;20047;-57
2022/03/29 03:21:19;;;;;;;70.13;33.65;;;;;;;7.35;91.14;101654.66;5065592;28;20028;-59
2022/03/29 03:23:44;;;;;;;76.15;38.38;;;;;;;7.31;91.01;101659.91;5065899;28;20039;-58
2022/03/29 03:26:10;;;;;;;83.95;39.47;;;;;;;7.28;90.98;101649.44;5065938;28;20032;-59
2022/03/29 03:28:35;;;;;;;79.50;37.05;;;;;;;7.19;91.36;101655.63;5066663;28;20032;-58
2022/03/29 03:31:01;;;;;;;81.07;37.78;;;;;;;7.22;91.39;101651.25;5066977;28;20054;-58
2022/03/29 03:33:26;;;;;;;80.53;38.53;;;;;;;6.96;91.97;101645.28;5046384;28;20062;-59
2022/03/29 03:35:51;;;;;;;67.18;30.20;;;;;;;7.02;92.05;101644.38;5066401;28;20026;-60
2022/03/29 03:38:17;;;;;;;71.38;33.40;;;;;;;6.95;92.02;101647.03;5064279;28;20040;-57
2022/03/29 03:40:42;;;;;;;73.93;33.90;;;;;;;6.97;92.17;101635.66;5066982;28;20345;-58
2022/03/29 03:43:08;;;;;;;76.88;36.40;;;;;;;6.97;91.69;101633.91;5064962;28;20036;-60
2022/03/29 03:45:33;;;;;;;76.05;35.85;;;;;;;6.91;92.09;101639.19;5066436;28;20024;-57
2022/03/29 03:47:59;;;;;;;79.03;35.80;;;;;;;6.89;92.11;101628.72;5065522;28;20067;-59
2022/03/29 03:50:24;;;;;;;82.78;38.33;;;;;;;6.87;92.35;101632.22;5066632;28;20052;-58
2022/03/29 03:52:51;;;;;;;64.03;30.92;;;;;;;6.93;92.23;101625.19;5065759;28;20028;-61
2022/03/29 03:55:16;;;;;;;81.95;35.78;;;;;;;6.88;91.84;101624.38;5066105;28;20078;-59
2022/03/29 03:57:41;;;;;;;76.18;35.65;;;;;;;6.75;92.47;101626.19;5056674;28;20328;-59
2022/03/29 04:00:07;;;;;;;68.90;32.08;;;;;;;6.77;92.80;101620.94;5060207;28;20021;-59
2022/03/29 04:02:33;;;;;;;71.35;32.65;;;;;;;6.79;92.05;101612.19;5066258;28;20036;-59
2022/03/29 04:04:58;;;;;;;76.13;35.35;;;;;;;6.78;92.48;101599.97;5062087;28;20025;-59
2022/03/29 04:07:24;;;;;;;87.47;37.40;;;;;;;6.56;92.69;101610.56;5062760;28;20363;-58
2022/03/29 04:09:49;;;;;;;97.50;36.78;;;;;;;6.45;93.21;101597.50;5066329;28;20029;-57
2022/03/29 04:12:14;;;;;;;81.15;36.13;;;;;;;6.50;93.42;101599.25;5066413;28;20052;-58
2022/03/29 04:14:40;;;;;;;83.57;38.15;;;;;;;6.51;93.65;101596.63;5065166;28;20119;-58
2022/03/29 04:17:05;;;;;;;94.18;38.30;;;;;;;6.42;93.89;101594.03;5066931;28;20596;-58
2022/03/29 04:19:31;;;;;;;84.55;35.13;;;;;;;6.55;93.58;101598.34;5065920;28;20452;-58
2022/03/29 04:21:56;;;;;;;68.97;32.83;;;;;;;6.64;93.00;101591.31;5066606;28;20299;-59
2022/03/29 04:24:21;;;;;;;73.75;34.17;;;;;;;6.60;92.94;101594.81;5065336;28;20028;-57
2022/03/29 04:26:51;;;;;;;103.57;39.47;;;;;;;6.55;93.43;101593.09;5066447;28;20115;-58
2022/03/29 04:29:17;;;;;;;94.80;39.92;;;;;;;6.43;93.84;101591.41;5047983;28;20021;-59
2022/03/29 04:31:42;;;;;;;82.10;35.28;;;;;;;6.41;94.05;101585.31;5065699;28;20441;-59
2022/03/29 04:34:07;;;;;;;100.03;39.92;;;;;;;6.39;94.37;101583.56;5047614;28;20124;-58
2022/03/29 04:36:33;;;;;;;128.68;40.97;;;;;;;6.36;94.17;101580.97;5066162;28;20035;-58
2022/03/29 04:38:58;;;;;;;95.15;39.03;;;;;;;6.47;94.06;101584.41;5065995;28;20453;-59
2022/03/29 04:41:24;;;;;;;117.80;41.95;;;;;;;6.39;94.25;101581.84;5065502;28;20371;-59
2022/03/29 04:43:49;;;;;;;104.00;42.00;;;;;;;6.37;94.69;101577.47;5047818;28;20054;-60
2022/03/29 04:46:15;;;;;;;104.63;43.63;;;;;;;6.40;94.43;101588.81;5064043;28;20037;-60
2022/03/29 04:48:40;;;;;;;90.72;39.58;;;;;;;6.50;94.14;101584.38;5064806;28;20029;-60
2022/03/29 04:51:06;;;;;;;102.45;43.00;;;;;;;6.53;93.97;101584.38;5064711;28;20078;-60
2022/03/29 04:53:31;;;;;;;110.07;40.97;;;;;;;6.48;94.06;101580.03;5065764;28;20048;-58
2022/03/29 04:55:57;;;;;;;91.15;40.58;;;;;;;6.52;94.00;101580.03;5065067;28;20561;-59
2022/03/29 04:58:24;;;;;;;102.55;43.60;;;;;;;6.52;93.92;101571.28;5065163;28;20429;-59
2022/03/29 05:00:49;;;;;;;107.25;43.58;;;;;;;6.51;93.98;101572.19;5064015;28;20025;-59
2022/03/29 05:03:14;;;;;;;97.95;42.55;;;;;;;6.47;94.08;101575.69;5064277;28;20070;-62
2022/03/29 05:05:40;;;;;;;83.88;38.17;;;;;;;6.90;92.65;101566.72;5063264;28;20017;-59
2022/03/29 05:08:05;;;;;;;86.65;40.38;;;;;;;7.01;91.25;101562.25;5064334;28;20091;-61
2022/03/29 05:10:30;;;;;;;77.75;36.05;;;;;;;7.49;89.65;101561.00;5064654;28;20047;-57
2022/03/29 05:12:56;;;;;;;97.75;40.72;;;;;;;7.65;87.70;101553.00;5063745;28;20047;-59
2022/03/29 05:15:22;;;;;;;81.10;39.38;;;;;;;7.57;87.57;101556.56;5063881;28;20052;-59
2022/03/29 05:17:47;;;;;;;85.78;38.55;;;;;;;7.61;87.42;101548.66;5063487;28;20032;-60
2022/03/29 05:20:14;;;;;;;83.40;37.38;;;;;;;7.90;86.39;101544.84;5064749;28;20478;-59
2022/03/29 05:22:45;;;;;;;82.28;38.95;;;;;;;7.62;86.94;101547.78;5028021;28;20410;-59
2022/03/29 05:25:11;;;;;;;77.80;38.25;;;;;;;7.73;86.33;101558.16;5064216;28;20387;-60
2022/03/29 05:27:37;;;;;;;64.93;34.03;;;;;;;7.95;85.65;101548.31;5063004;28;20032;-59
2022/03/29 05:30:03;;;;;;;78.78;37.95;;;;;;;7.97;85.29;101551.75;5064734;28;20039;-58
2022/03/29 05:32:28;;;;;;;78.80;38.08;;;;;;;7.89;85.28;101559.72;5062797;28;20494;-60
2022/03/29 05:34:54;;;;;;;81.10;38.33;;;;;;;7.75;85.99;101549.38;5064807;28;20040;-59
2022/03/29 05:37:19;;;;;;;78.18;36.88;;;;;;;7.74;85.65;101550.28;5064031;28;20040;-61
2022/03/29 05:39:44;;;;;;;75.55;35.30;;;;;;;7.82;85.67;101547.53;5064390;28;20429;-61
2022/03/29 05:42:10;;;;;;;82.72;38.40;;;;;;;7.69;85.84;101549.44;5061547;28;20102;-59
2022/03/29 05:44:39;;;;;;;73.57;35.95;;;;;;;7.79;85.80;101558.94;5064391;28;20059;-59
2022/03/29 05:49:49;;;;;;;78.65;36.28;;;;;;;7.98;84.63;101561.38;5049327;28;20064;-60
2022/03/29 05:52:14;;;;;;;77.25;37.45;;;;;;;7.75;85.08;101561.63;5059491;28;20025;-59
2022/03/29 05:54:41;;;;;;;81.63;38.00;;;;;;;7.94;84.66;101557.03;5061930;28;20025;-59
2022/03/29 05:57:06;;;;;;;75.28;36.05;;;;;;;7.95;84.06;101559.66;5062872;28;20027;-60
2022/03/29 05:59:32;;;;;;;69.93;34.15;;;;;;;7.69;85.14;101567.81;5062907;28;20028;-60
2022/03/29 06:02:04;;;;;;;75.80;36.55;;;;;;;7.88;84.80;101572.84;5062633;28;20423;-57
2022/03/29 06:04:30;;;;;;;71.82;35.13;;;;;;;7.80;84.62;101578.19;5052327;28;20053;-61
2022/03/29 06:06:55;;;;;;;76.15;37.85;;;;;;;7.58;84.59;101571.41;5064134;28;20071;-59
2022/03/29 06:09:21;;;;;;;79.88;38.92;;;;;;;7.63;85.37;101562.63;5070731;28;20021;-59
2022/03/29 06:11:47;;;;;;;80.50;37.95;;;;;;;7.93;84.99;101565.81;5049802;28;20036;-59
2022/03/29 06:14:14;;;;;;;76.38;36.20;;;;;;;8.02;84.53;101564.81;5058006;28;21106;-60
2022/03/29 06:16:40;;;;;;;68.10;31.83;;;;;;;8.19;83.63;101567.28;5061333;28;20036;-60
2022/03/29 06:19:06;;;;;;;67.03;33.55;;;;;;;7.99;83.94;101562.25;5059760;28;20051;-60
2022/03/29 06:21:32;;;;;;;73.05;36.67;;;;;;;7.81;84.68;101562.44;5060909;28;20029;-58
2022/03/29 06:23:57;;;;;;;72.35;34.85;;;;;;;7.94;84.27;101562.28;5067205;28;20028;-59
2022/03/29 06:26:22;;;;;;;64.57;32.20;;;;;;;8.18;83.51;101560.25;5049588;28;20028;-59
2022/03/29 06:28:47;;;;;;;74.72;36.55;;;;;;;8.09;83.35;101561.25;5060705;28;20033;-59
2022/03/29 06:31:13;;;;;;;72.95;36.33;;;;;;;8.20;83.06;101556.75;5049381;28;20016;-58
2022/03/29 06:33:38;;;;;;;71.88;34.78;;;;;;;8.31;82.35;101567.09;5058942;28;20033;-60
2022/03/29 06:36:04;;;;;;;57.40;29.48;;;;;;;8.37;82.39;101560.03;5057062;28;20124;-60
2022/03/29 06:38:31;;;;;;;60.25;31.25;;;;;;;8.21;82.52;101563.72;5070208;28;20060;-59
2022/03/29 06:40:58;;;;;;;66.20;31.70;;;;;;;8.05;82.96;101554.28;5069743;28;20506;-65
2022/03/29 06:43:24;;;;;;;59.38;29.90;;;;;;;7.97;82.75;101562.25;5068880;28;20013;-59
2022/03/29 06:45:49;;;;;;;58.55;28.70;;;;;;;7.77;83.40;101559.88;5061116;28;20031;-59
2022/03/29 06:48:14;;;;;;;64.28;30.63;;;;;;;7.92;83.69;101556.22;5048363;28;20120;-58
2022/03/29 06:50:40;;;;;;;57.55;29.45;;;;;;;7.89;82.49;101561.50;5059680;28;20412;-57
2022/03/29 06:53:06;;;;;;;58.92;28.63;;;;;;;8.13;81.92;101562.09;5058620;28;20506;-60
2022/03/29 06:55:32;;;;;;;52.53;28.52;;;;;;;8.09;81.53;101562.13;5067541;28;20394;-61
2022/03/29 06:57:57;;;;;;;55.13;29.35;;;;;;;7.98;81.56;101561.38;5070191;28;20024;-61
2022/03/29 07:00:23;;;;;;;60.53;28.58;;;;;;;8.12;81.79;101561.22;5068096;28;20028;-61
2022/03/29 07:02:49;;;;;;;54.58;27.73;;;;;;;8.28;81.25;101558.41;5070656;28;20032;-60
2022/03/29 07:05:14;;;;;;;55.17;27.55;;;;;;;8.28;80.86;101567.13;5069570;28;20492;-61
2022/03/29 07:07:41;;;;;;;54.42;28.52;;;;;;;8.22;80.42;101562.00;5068009;28;20067;-60
2022/03/29 07:12:54;;;;;;;45.65;26.55;;;;;;;8.46;79.11;101565.19;5048098;28;20040;-60
2022/03/29 07:15:19;;;;;;;53.63;27.85;;;;;;;8.20;79.55;101569.88;5056724;28;20120;-61
2022/03/29 07:17:45;;;;;;;57.53;27.52;;;;;;;8.03;80.21;101567.44;5057833;28;20169;-57
2022/03/29 07:20:12;;;;;;;48.10;26.98;;;;;;;8.31;79.02;101561.84;5061025;28;20478;-59
2022/03/29 07:22:37;;;;;;;54.90;27.92;;;;;;;8.29;79.25;101562.75;5063833;28;20032;-58
2022/03/29 07:25:03;;;;;;;45.17;25.98;;;;;;;8.34;78.86;101564.44;5066955;28;20077;-59
2022/03/29 07:27:29;;;;;;;49.25;25.05;;;;;;;8.42;78.68;101558.22;5043070;28;20068;-59
2022/03/29 07:29:54;;;;;;;43.17;25.23;;;;;;;8.66;78.49;101559.66;5048763;28;20032;-61
2022/03/29 07:32:21;;;;;;;51.25;26.05;;;;;;;8.83;77.90;101554.19;5065848;28;20025;-57
2022/03/29 07:34:46;;;;;;;49.05;26.02;;;;;;;9.01;76.98;101552.16;5062578;28;20036;-60
2022/03/29 07:37:11;;;;;;;44.40;24.98;;;;;;;8.96;76.26;101559.22;5062800;28;20028;-59
2022/03/29 07:39:38;;;;;;;47.95;24.17;;;;;;;9.05;75.81;101558.22;5055729;28;20029;-59
2022/03/29 07:42:04;;;;;;;46.72;24.42;;;;;;;9.13;76.34;101553.72;5049169;28;20039;-59
2022/03/29 07:44:29;;;;;;;42.55;25.40;;;;;;;9.12;76.46;101557.22;5044932;28;20029;-60
2022/03/29 07:46:54;;;;;;;46.85;24.77;;;;;;;9.03;76.29;101554.75;5045655;28;20029;-58
2022/03/29 07:49:20;;;;;;;38.65;23.75;;;;;;;9.14;75.51;101555.44;5045369;28;20028;-57
2022/03/29 07:51:45;;;;;;;46.78;24.08;;;;;;;9.03;75.95;101567.91;5046402;28;20055;-59
2022/03/29 07:54:10;;;;;;;45.58;24.55;;;;;;;9.09;75.88;101560.78;5043939;28;20036;-57
2022/03/29 07:56:36;;;;;;;39.17;23.38;;;;;;;9.12;75.82;101554.59;5044165;28;20093;-59
2022/03/29 07:59:01;;;;;;;41.95;23.77;;;;;;;9.07;76.15;101557.31;5045453;28;20490;-59
2022/03/29 08:01:28;;;;;;;44.33;23.10;;;;;;;9.16;76.54;101558.06;5045064;28;20566;-59
2022/03/29 08:03:54;;;;;;;40.90;23.35;;;;;;;9.29;75.48;101554.31;5028008;28;20057;-58
2022/03/29 08:06:20;;;;;;;42.72;22.38;;;;;;;9.35;74.14;101548.97;5032961;28;20021;-58
2022/03/29 08:08:45;;;;;;;42.13;23.85;;;;;;;9.28;74.66;101555.22;5044267;28;20028;-58
2022/03/29 08:11:11;;;;;;;40.90;23.48;;;;;;;9.40;74.81;101542.75;5035781;28;20028;-59
2022/03/29 08:13:37;;;;;;;42.28;23.25;;;;;;;9.41;74.86;101541.84;5024651;28;20055;-60
2022/03/29 08:16:02;;;;;;;37.50;22.95;;;;;;;9.56;74.11;101548.59;5035089;28;20510;-59
2022/03/29 08:18:30;;;;;;;37.60;22.27;;;;;;;9.53;74.10;101541.63;5031100;28;20032;-58
2022/03/29 08:20:56;;;;;;;41.95;23.33;;;;;;;9.33;74.67;101549.91;5026087;28;20021;-59
2022/03/29 08:23:21;;;;;;;41.67;23.00;;;;;;;9.30;74.41;101549.94;5025255;28;20020;-58
2022/03/29 08:25:47;;;;;;;35.67;22.00;;;;;;;9.45;74.20;101552.28;5025274;28;20048;-57
2022/03/29 08:28:14;;;;;;;49.05;22.65;;;;;;;9.31;74.65;101549.91;5030268;28;20389;-57
2022/03/29 08:30:40;;;;;;;39.53;22.85;;;;;;;9.40;73.42;101550.63;5045382;28;20036;-58
2022/03/29 08:33:05;;;;;;;41.80;24.40;;;;;;;9.31;74.01;101552.56;5039832;28;20021;-58
2022/03/29 08:35:32;;;;;;;44.40;22.02;;;;;;;9.50;74.06;101548.69;5031472;28;20020;-58
2022/03/29 08:37:57;;;;;;;44.72;22.67;;;;;;;9.66;74.00;101544.06;5040792;28;20099;-58
2022/03/29 08:40:26;;;;;;;34.53;20.95;;;;;;;9.85;73.92;101550.69;5045110;28;20459;-57
2022/03/29 08:42:54;;;;;;;41.77;21.27;;;;;;;10.17;73.05;101540.41;5043773;28;20331;-58
2022/03/29 08:45:26;;;;;;;41.60;24.75;;;;;;;10.26;71.82;101543.75;5043211;28;20317;-58
2022/03/29 08:47:53;;;;;;;41.63;22.50;;;;;;;10.22;72.42;101543.81;5040704;28;20033;-58
2022/03/29 08:50:19;;;;;;;41.30;24.02;;;;;;;10.36;72.27;101548.75;5045496;28;20058;-59
2022/03/29 08:52:45;;;;;;;40.88;22.80;;;;;;;10.34;72.27;101547.94;5043816;28;20040;-57
2022/03/29 08:55:10;;;;;;;36.90;21.67;;;;;;;10.60;70.74;101548.31;5043335;28;20032;-59
2022/03/29 08:57:37;;;;;;;38.42;22.23;;;;;;;10.57;70.12;101541.31;5044574;28;20048;-59
2022/03/29 09:00:04;;;;;;;39.20;23.23;;;;;;;10.57;70.52;101543.94;5031245;28;20063;-59
2022/03/29 09:02:35;;;;;;;36.60;22.42;;;;;;;10.64;70.51;101544.69;5023937;28;20084;-58
2022/03/29 09:05:13;;;;;;;40.92;22.65;;;;;;;10.76;69.91;101543.53;5034881;28;21023;-59
2022/03/29 09:07:58;;;;;;;41.63;22.63;;;;;;;10.69;69.44;101541.97;5034182;28;20059;-58
2022/03/29 09:10:41;;;;;;;39.45;22.50;;;;;;;10.55;70.54;101537.88;5041347;28;20526;-58
2022/03/29 09:13:28;;;;;;;39.00;23.83;;;;;;;10.79;70.54;101526.78;5044113;28;20046;-59
2022/03/29 09:16:02;;;;;;;38.15;23.58;;;;;;;10.90;70.79;101527.41;5042434;28;20044;-57
2022/03/29 09:18:30;;;;;;;39.17;22.35;;;;;;;11.20;69.66;101531.97;5042620;28;20348;-59
2022/03/29 09:21:13;;;;;;;38.20;23.40;;;;;;;11.19;68.91;101530.19;5043698;28;20029;-60
2022/03/29 09:23:39;;;;;;;36.58;21.95;;;;;;;11.19;68.95;101535.47;5044169;28;20068;-59
2022/03/29 09:26:05;;;;;;;40.88;23.00;;;;;;;10.93;69.69;101534.38;5058583;28;20221;-58
2022/03/29 09:28:37;;;;;;;49.92;25.30;;;;;;;10.85;69.92;101538.06;5062867;28;20036;-56
2022/03/29 09:31:17;;;;;;;43.58;24.77;;;;;;;10.77;69.56;101529.47;5061808;28;20475;-58
2022/03/29 09:33:43;;;;;;;44.67;24.75;;;;;;;10.93;70.06;101531.75;5064227;28;20020;-60
2022/03/29 09:36:12;;;;;;;36.70;21.83;;;;;;;11.48;67.97;101532.09;5044019;28;20032;-59
2022/03/29 09:38:40;;;;;;;40.20;24.25;;;;;;;11.32;67.47;101530.78;5053748;28;20029;-60
2022/03/29 09:41:19;;;;;;;41.22;22.75;;;;;;;11.11;68.67;101526.00;5055161;28;20024;-59
2022/03/29 09:44:07;;;;;;;41.40;23.02;;;;;;;11.08;68.49;101522.59;5053769;28;20091;-59
2022/03/29 09:46:55;;;;;;;37.05;22.63;;;;;;;10.93;69.15;101529.09;5056561;28;20044;-59
2022/03/29 09:49:22;;;;;;;40.72;23.48;;;;;;;11.10;68.96;101521.63;5064151;28;20089;-61
2022/03/29 09:51:48;;;;;;;38.88;22.50;;;;;;;11.01;69.47;101523.66;5044918;28;20032;-60
2022/03/29 09:54:13;;;;;;;50.30;24.02;;;;;;;11.19;69.43;101514.38;5046022;28;20382;-56
2022/03/29 09:56:39;;;;;;;43.78;24.63;;;;;;;11.27;69.29;101517.69;5062684;28;20047;-59
2022/03/29 09:59:09;;;;;;;41.25;24.38;;;;;;;11.28;69.23;101518.53;5062219;28;20108;-57
2022/03/29 10:01:51;;;;;;;42.60;24.20;;;;;;;11.37;68.63;101513.03;5052345;28;20053;-60
2022/03/29 10:04:17;;;;;;;44.75;25.30;;;;;;;11.44;68.40;101513.75;5060652;28;20090;-58
2022/03/29 10:06:48;;;;;;;33.83;21.88;;;;;;;11.81;67.10;101509.22;5063873;28;20025;-60
2022/03/29 10:09:29;;;;;;;38.75;23.85;;;;;;;11.70;67.04;101509.53;5036754;28;20047;-58
2022/03/29 10:11:57;;;;;;;49.17;25.33;;;;;;;11.42;67.66;101505.88;5048078;28;20232;-59
2022/03/29 10:14:25;;;;;;;38.70;23.53;;;;;;;11.44;68.24;101500.56;5063067;28;20032;-60
2022/03/29 10:16:52;;;;;;;37.70;21.73;;;;;;;11.25;67.73;101501.03;5062139;28;20281;-61
2022/03/29 10:19:18;;;;;;;46.30;23.30;;;;;;;11.32;67.33;101494.69;5038839;28;20024;-60
2022/03/29 10:21:44;;;;;;;40.17;23.02;;;;;;;11.18;68.10;101494.19;5062079;28;20124;-60
2022/03/29 10:24:13;;;;;;;42.42;22.98;;;;;;;11.28;67.90;101500.06;5063329;28;20025;-58
2022/03/29 10:26:41;;;;;;;41.78;23.25;;;;;;;11.33;67.42;101504.34;5060424;28;20386;-59
2022/03/29 10:29:07;;;;;;;41.85;21.63;;;;;;;11.35;68.38;101505.16;5039576;28;20115;-58
2022/03/29 10:31:39;;;;;;;40.70;22.67;;;;;;;11.18;68.31;101499.47;5062814;28;20503;-59
2022/03/29 10:34:24;;;;;;;43.20;24.40;;;;;;;11.38;67.28;101501.59;5062391;28;20459;-59
2022/03/29 10:37:16;;;;;;;39.50;22.25;;;;;;;11.65;67.07;101493.81;5063013;28;20052;-56
2022/03/29 10:39:47;;;;;;;38.33;20.58;;;;;;;11.84;66.04;101493.28;5058214;28;20379;-59
2022/03/29 10:42:30;;;;;;;36.50;22.38;;;;;;;12.11;65.83;101483.75;5047358;28;20083;-58
2022/03/29 10:45:19;;;;;;;33.20;20.90;;;;;;;11.99;64.87;101492.00;5062620;28;20395;-58
2022/03/29 10:47:54;;;;;;;32.50;20.08;;;;;;;12.15;64.51;101483.63;5064696;28;20032;-59
2022/03/29 10:50:19;;;;;;;32.55;19.23;;;;;;;12.05;65.23;101483.88;5067831;28;20024;-57
2022/03/29 10:52:49;;;;;;;36.35;21.58;;;;;;;12.51;64.26;101480.75;5068216;28;20085;-60
2022/03/29 10:55:17;;;;;;;35.35;20.27;;;;;;;12.79;63.06;101479.00;5066104;28;20116;-59
2022/03/29 10:58:12;;;;;;;36.92;21.17;;;;;;;12.94;62.35;101473.19;5067891;28;20394;-59
2022/03/29 11:00:45;;;;;;;34.75;20.48;;;;;;;13.24;62.44;101481.00;5066167;28;20509;-57
2022/03/29 11:03:14;;;;;;;35.75;20.65;;;;;;;13.53;61.40;101470.34;5065739;28;20028;-58
2022/03/29 11:06:11;;;;;;;30.35;17.98;;;;;;;13.96;60.13;101469.63;5060425;28;20074;-61
2022/03/29 11:08:49;;;;;;;34.47;20.15;;;;;;;13.71;60.82;101470.56;5058054;28;20048;-55
2022/03/29 11:11:36;;;;;;;28.60;19.52;;;;;;;13.21;60.86;101461.72;5067080;28;20032;-66
2022/03/29 11:14:37;;;;;;;38.03;19.88;;;;;;;12.96;61.01;101455.50;5066665;28;20035;-61
2022/03/29 11:17:11;;;;;;;31.77;19.05;;;;;;;13.44;61.64;101457.38;5057308;28;20367;-63
2022/03/29 11:19:48;;;;;;;30.67;19.70;;;;;;;13.34;60.48;101457.72;5056652;28;20031;-63
2022/03/29 11:22:42;;;;;;;34.67;18.92;;;;;;;13.62;59.88;101456.75;5057488;28;20041;-61
2022/03/29 11:25:10;;;;;;;35.28;19.02;;;;;;;14.16;59.38;101452.97;5056390;28;20041;-60